createdAt,value
2022-11-21T00:01:52.210Z,35.70
2022-11-21T00:04:23.234Z,39.20
2022-11-21T00:06:54.447Z,39.90
2022-11-21T00:09:25.333Z,37.50
2022-11-21T00:11:56.308Z,38.20
2022-11-21T00:14:27.741Z,41.20
2022-11-21T00:16:58.820Z,37.20
2022-11-21T00:19:29.730Z,31.40
2022-11-21T00:22:00.641Z,40.60
2022-11-21T00:24:31.524Z,42.30
2022-11-21T00:27:02.489Z,41.10
2022-11-21T00:29:33.534Z,40.90
2022-11-21T00:32:04.816Z,41.00
2022-11-21T00:34:35.770Z,43.10
2022-11-21T00:37:06.770Z,42.00
2022-11-21T00:39:37.687Z,40.40
2022-11-21T00:42:08.697Z,40.40
2022-11-21T00:44:39.622Z,41.20
2022-11-21T00:47:10.630Z,46.30
2022-11-21T00:49:41.538Z,39.70
2022-11-21T00:52:12.502Z,41.20
2022-11-21T00:54:43.411Z,42.30
2022-11-21T00:57:14.396Z,44.60
2022-11-21T00:59:45.822Z,41.00
2022-11-21T01:02:16.761Z,43.50
2022-11-21T01:04:47.777Z,39.60
2022-11-21T01:07:19.172Z,43.10
2022-11-21T01:09:50.224Z,42.50
2022-11-21T01:12:21.180Z,42.20
2022-11-21T01:14:52.215Z,39.50
2022-11-21T01:17:23.143Z,40.40
2022-11-21T01:19:54.314Z,44.20
2022-11-21T01:22:25.235Z,42.90
2022-11-21T01:24:56.230Z,43.60
2022-11-21T01:27:27.184Z,43.10
2022-11-21T01:29:58.517Z,45.70
2022-11-21T01:32:29.447Z,41.60
2022-11-21T01:35:00.421Z,44.10
2022-11-21T01:37:31.328Z,40.10
2022-11-21T01:40:02.281Z,43.90
2022-11-21T01:42:50.888Z,43.20
2022-11-21T01:45:55.731Z,42.70
2022-11-21T01:48:33.857Z,40.30
2022-11-21T01:51:13.920Z,43.30
2022-11-21T01:53:49.607Z,42.20
2022-11-21T01:56:20.911Z,45.90
2022-11-21T01:58:54.872Z,45.70
2022-11-21T02:01:27.700Z,43.60
2022-11-21T02:04:03.144Z,42.70
2022-11-21T02:06:37.302Z,40.70
2022-11-21T02:09:08.919Z,40.50
2022-11-21T02:11:44.698Z,47.50
2022-11-21T02:14:16.052Z,45.80
2022-11-21T02:16:47.266Z,41.70
2022-11-21T02:19:27.028Z,45.30
2022-11-21T02:22:06.475Z,42.60
2022-11-21T02:24:44.556Z,44.90
2022-11-21T02:27:16.021Z,43.00
2022-11-21T02:29:47.286Z,44.70
2022-11-21T02:32:26.310Z,42.50
2022-11-21T02:34:57.255Z,45.00
2022-11-21T02:37:28.328Z,43.40
2022-11-21T02:40:02.192Z,46.10
2022-11-21T02:42:37.897Z,41.50
2022-11-21T02:45:17.476Z,43.70
2022-11-21T02:47:51.282Z,42.20
2022-11-21T02:50:27.978Z,43.70
2022-11-21T02:52:58.982Z,42.00
2022-11-21T02:55:30.034Z,42.00
2022-11-21T02:58:04.821Z,45.50
2022-11-21T03:00:38.102Z,43.80
2022-11-21T03:03:10.078Z,45.10
2022-11-21T03:05:42.216Z,43.70
2022-11-21T03:08:13.193Z,44.30
2022-11-21T03:10:44.181Z,42.90
2022-11-21T03:13:15.132Z,43.10
2022-11-21T03:15:46.071Z,49.40
2022-11-21T03:18:17.011Z,46.40
2022-11-21T03:20:47.956Z,45.80
2022-11-21T03:23:18.892Z,46.70
2022-11-21T03:25:49.816Z,42.80
2022-11-21T03:28:20.813Z,43.20
2022-11-21T03:30:51.731Z,42.90
2022-11-21T03:33:22.716Z,45.00
2022-11-21T03:35:53.702Z,40.90
2022-11-21T03:38:24.691Z,45.50
2022-11-21T03:40:55.652Z,42.20
2022-11-21T03:43:26.714Z,45.50
2022-11-21T03:45:57.639Z,41.90
2022-11-21T03:48:28.586Z,41.70
2022-11-21T03:50:59.522Z,41.70
2022-11-21T03:53:30.497Z,44.50
2022-11-21T03:56:01.489Z,44.00
2022-11-21T03:58:32.527Z,43.50
2022-11-21T04:01:03.880Z,40.40
2022-11-21T04:03:35.162Z,43.40
2022-11-21T04:06:06.340Z,45.10
2022-11-21T04:08:37.369Z,47.30
2022-11-21T04:11:08.636Z,42.80
2022-11-21T04:13:39.700Z,44.00
2022-11-21T04:16:10.782Z,42.10
2022-11-21T04:18:41.731Z,45.10
2022-11-21T04:21:12.742Z,43.10
2022-11-21T04:23:43.679Z,44.20
2022-11-21T04:26:14.617Z,43.90
2022-11-21T04:28:45.543Z,44.30
2022-11-21T04:31:16.614Z,45.10
2022-11-21T04:33:47.571Z,42.10
2022-11-21T04:36:18.542Z,42.00
2022-11-21T04:38:49.503Z,44.00
2022-11-21T04:41:20.650Z,44.80
2022-11-21T04:43:51.603Z,47.30
2022-11-21T04:46:23.005Z,43.10
2022-11-21T04:48:53.990Z,44.10
2022-11-21T04:51:24.969Z,46.00
2022-11-21T04:53:55.882Z,42.30
2022-11-21T04:56:26.901Z,43.40
2022-11-21T04:58:57.918Z,44.60
2022-11-21T05:01:29.103Z,41.80
2022-11-21T05:04:00.138Z,43.70
2022-11-21T05:06:31.153Z,42.80
2022-11-21T05:09:02.971Z,41.70
2022-11-21T05:11:52.061Z,44.60
2022-11-21T05:14:26.598Z,48.80
2022-11-21T05:16:57.900Z,46.20
2022-11-21T05:19:28.947Z,45.10
2022-11-21T05:22:01.743Z,45.70
2022-11-21T05:24:32.715Z,42.90
2022-11-21T05:27:06.612Z,39.30
2022-11-21T05:29:37.614Z,40.50
2022-11-21T05:32:08.724Z,42.20
2022-11-21T05:34:39.681Z,39.40
2022-11-21T05:37:11.747Z,43.50
2022-11-21T05:39:43.485Z,39.30
2022-11-21T05:42:15.116Z,39.50
2022-11-21T05:44:46.756Z,40.80
2022-11-21T05:47:17.727Z,42.10
2022-11-21T05:49:48.683Z,39.30
2022-11-21T05:52:20.789Z,41.90
2022-11-21T05:54:51.831Z,43.90
2022-11-21T05:57:26.157Z,42.90
2022-11-21T05:59:58.737Z,40.30
2022-11-21T06:02:47.467Z,43.30
2022-11-21T06:05:18.744Z,38.00
2022-11-21T06:07:49.733Z,42.20
2022-11-21T06:10:21.201Z,55.90
2022-11-21T06:12:53.324Z,43.70
2022-11-21T06:15:24.437Z,41.80
2022-11-21T06:17:55.742Z,42.10
2022-11-21T06:20:26.725Z,43.10
2022-11-21T06:23:00.723Z,42.30
2022-11-21T06:25:31.640Z,43.40
2022-11-21T06:28:04.604Z,44.60
2022-11-21T06:30:36.047Z,47.00
2022-11-21T06:33:07.720Z,41.90
2022-11-21T06:35:41.023Z,45.30
2022-11-21T06:38:13.914Z,46.90
2022-11-21T06:40:45.352Z,45.00
2022-11-21T06:43:17.066Z,43.10
2022-11-21T06:45:48.304Z,43.10
2022-11-21T06:48:19.773Z,41.70
2022-11-21T06:50:50.845Z,43.90
2022-11-21T06:53:22.233Z,44.70
2022-11-21T06:55:53.655Z,44.50
2022-11-21T06:58:25.247Z,46.40
2022-11-21T07:00:56.447Z,44.80
2022-11-21T07:03:27.699Z,45.60
2022-11-21T07:06:01.808Z,47.20
2022-11-21T07:08:35.787Z,43.80
2022-11-21T07:11:25.457Z,41.10
2022-11-21T07:13:56.884Z,43.10
2022-11-21T07:16:31.925Z,43.80
2022-11-21T07:19:02.994Z,43.60
2022-11-21T07:21:34.562Z,42.40
2022-11-21T07:24:06.725Z,41.10
2022-11-21T07:26:37.930Z,40.60
2022-11-21T07:29:09.583Z,41.20
2022-11-21T07:31:40.620Z,41.20
2022-11-21T07:34:11.723Z,43.60
2022-11-21T07:36:42.740Z,42.50
2022-11-21T07:39:14.109Z,39.30
2022-11-21T07:41:45.309Z,37.40
2022-11-21T07:44:16.358Z,50.40
2022-11-21T07:46:50.866Z,40.60
2022-11-21T07:49:21.861Z,41.00
2022-11-21T07:51:52.842Z,41.00
2022-11-21T07:54:23.978Z,39.50
2022-11-21T07:56:55.486Z,40.80
2022-11-21T07:59:26.860Z,39.80
2022-11-21T08:01:58.595Z,39.50
2022-11-21T08:04:30.951Z,37.10
2022-11-21T08:07:02.276Z,38.20
2022-11-21T08:09:38.649Z,37.50
2022-11-21T08:12:12.086Z,34.90
2022-11-21T08:14:43.411Z,35.50
2022-11-21T08:17:14.959Z,35.00
2022-11-21T08:19:45.882Z,31.40
2022-11-21T08:22:17.524Z,31.70
2022-11-21T08:24:48.611Z,31.80
2022-11-21T08:27:21.978Z,33.10
2022-11-21T08:29:53.184Z,29.60
2022-11-21T08:32:24.289Z,30.40
2022-11-21T08:34:55.241Z,29.00
2022-11-21T08:37:27.798Z,30.70
2022-11-21T08:40:00.834Z,29.50
2022-11-21T08:42:32.232Z,29.70
2022-11-21T08:45:03.474Z,30.30
2022-11-21T08:47:36.634Z,30.40
2022-11-21T08:50:09.649Z,30.70
2022-11-21T08:52:40.986Z,29.30
2022-11-21T08:55:12.784Z,29.70
2022-11-21T08:57:44.339Z,28.60
2022-11-21T09:00:17.706Z,29.90
2022-11-21T09:02:48.778Z,29.90
2022-11-21T09:05:20.632Z,27.30
2022-11-21T09:07:56.564Z,28.30
2022-11-21T09:10:29.120Z,28.80
2022-11-21T09:13:02.535Z,29.20
2022-11-21T09:15:51.289Z,28.50
2022-11-21T09:18:22.745Z,28.80
2022-11-21T09:20:54.021Z,28.80
2022-11-21T09:23:25.183Z,28.10
2022-11-21T09:25:56.256Z,29.20
2022-11-21T09:28:27.558Z,28.10
2022-11-21T09:30:59.184Z,25.60
2022-11-21T09:33:30.384Z,29.70
2022-11-21T09:36:02.819Z,27.40
2022-11-21T09:38:33.774Z,26.00
2022-11-21T09:41:32.052Z,27.90
2022-11-21T09:44:14.965Z,26.20
2022-11-21T09:46:50.282Z,27.20
2022-11-21T09:49:23.316Z,26.60
2022-11-21T09:51:55.727Z,27.40
2022-11-21T09:54:33.816Z,26.80
2022-11-21T09:57:04.914Z,31.00
2022-11-21T09:59:39.614Z,32.50
2022-11-21T10:02:17.447Z,33.80
2022-11-21T10:04:50.286Z,35.20
2022-11-21T10:07:27.086Z,34.10
2022-11-21T10:10:20.573Z,31.00
2022-11-21T10:13:10.820Z,26.40
2022-11-21T10:15:56.049Z,25.80
2022-11-21T10:19:00.860Z,34.50
2022-11-21T10:21:50.903Z,33.90
2022-11-21T10:24:49.610Z,36.40
2022-11-21T10:27:28.019Z,32.80
2022-11-21T10:30:04.422Z,31.20
2022-11-21T10:32:40.515Z,29.40
2022-11-21T10:35:21.114Z,31.80
2022-11-21T10:37:55.134Z,32.20
2022-11-21T10:40:45.734Z,30.70
2022-11-21T10:43:49.553Z,29.60
2022-11-21T10:46:20.732Z,30.40
2022-11-21T10:49:00.699Z,31.20
2022-11-21T10:51:47.194Z,33.20
2022-11-21T10:54:33.823Z,33.50
2022-11-21T10:57:14.362Z,30.10
2022-11-21T11:00:01.206Z,30.60
2022-11-21T11:02:32.352Z,28.80
2022-11-21T11:05:23.287Z,28.10
2022-11-21T11:08:06.632Z,27.10
2022-11-21T11:10:40.291Z,26.70
2022-11-21T11:13:46.404Z,25.80
2022-11-21T11:18:57.873Z,25.80
2022-11-21T11:21:32.346Z,26.50
2022-11-21T11:24:26.223Z,25.70
2022-11-21T11:27:03.136Z,26.50
2022-11-21T11:29:50.345Z,24.50
2022-11-21T11:32:22.325Z,27.00
2022-11-21T11:35:01.342Z,25.50
2022-11-21T11:37:41.109Z,26.40
2022-11-21T11:40:25.496Z,27.10
2022-11-21T11:43:32.814Z,26.70
2022-11-21T11:46:48.044Z,25.60
2022-11-21T11:49:53.164Z,25.80
2022-11-21T11:52:26.610Z,25.20
2022-11-21T11:55:03.379Z,26.50
2022-11-21T11:57:36.747Z,26.10
2022-11-21T12:00:20.829Z,26.20
2022-11-21T12:03:01.457Z,27.20
2022-11-21T12:05:35.604Z,32.40
2022-11-21T12:08:40.705Z,27.30
2022-11-21T12:11:35.159Z,28.30
2022-11-21T12:14:35.234Z,20.20
2022-11-21T12:17:10.739Z,26.10
2022-11-21T12:19:42.416Z,26.90
2022-11-21T12:22:14.011Z,29.00
2022-11-21T12:24:45.569Z,24.50
2022-11-21T12:27:27.673Z,25.40
2022-11-21T12:30:26.519Z,22.30
2022-11-21T12:33:09.285Z,27.50
2022-11-21T12:36:17.263Z,25.60
2022-11-21T12:39:04.440Z,26.70
2022-11-21T12:42:01.582Z,27.70
2022-11-21T12:44:57.819Z,27.10
2022-11-21T12:50:57.105Z,26.20
2022-11-21T12:53:55.099Z,24.20
2022-11-21T12:56:34.530Z,26.00
2022-11-21T12:59:06.211Z,27.00
2022-11-21T13:01:50.523Z,26.40
2022-11-21T13:04:27.876Z,27.90
2022-11-21T13:07:00.850Z,26.40
2022-11-21T13:09:38.257Z,26.50
2022-11-21T13:12:14.840Z,25.40
2022-11-21T13:14:53.491Z,24.80
2022-11-21T13:17:50.921Z,24.70
2022-11-21T13:20:32.480Z,26.20
2022-11-21T13:23:06.705Z,25.20
2022-11-21T13:25:48.919Z,23.80
2022-11-21T13:28:37.753Z,25.70
2022-11-21T13:31:30.391Z,26.10
2022-11-21T13:34:04.205Z,25.70
2022-11-21T13:36:40.422Z,28.50
2022-11-21T13:39:29.500Z,24.70
2022-11-21T13:42:24.695Z,28.40
2022-11-21T13:44:56.097Z,23.80
2022-11-21T13:48:02.145Z,28.70
2022-11-21T13:50:59.028Z,25.60
2022-11-21T13:53:58.207Z,24.90
2022-11-21T13:56:43.156Z,25.60
2022-11-21T13:59:30.522Z,27.30
2022-11-21T14:02:20.828Z,29.60
2022-11-21T14:05:06.198Z,27.40
2022-11-21T14:07:40.514Z,27.50
2022-11-21T14:10:32.067Z,27.40
2022-11-21T14:13:05.672Z,26.60
2022-11-21T14:15:44.445Z,28.60
2022-11-21T14:18:23.713Z,27.60
2022-11-21T14:20:58.346Z,31.50
2022-11-21T14:23:32.145Z,28.30
2022-11-21T14:26:06.552Z,29.80
2022-11-21T14:28:39.556Z,29.00
2022-11-21T14:31:12.419Z,28.60
2022-11-21T14:33:44.948Z,25.40
2022-11-21T14:36:19.680Z,24.90
2022-11-21T14:39:13.885Z,28.00
2022-11-21T14:41:49.345Z,29.40
2022-11-21T14:44:22.626Z,26.50
2022-11-21T14:47:09.989Z,31.70
2022-11-21T14:49:49.638Z,28.10
2022-11-21T14:52:26.455Z,31.10
2022-11-21T14:55:29.799Z,30.70
2022-11-21T14:57:52.214Z,33.70
2022-11-21T15:03:22.474Z,35.20
2022-11-21T15:06:05.813Z,37.40
2022-11-21T15:09:18.303Z,36.70
2022-11-21T15:11:39.693Z,37.90
2022-11-21T15:14:26.030Z,36.20
2022-11-21T15:16:59.154Z,36.00
2022-11-21T15:19:32.664Z,41.40
2022-11-21T15:22:05.454Z,39.90
2022-11-21T15:24:44.778Z,33.40
2022-11-21T15:27:35.009Z,40.00
2022-11-21T15:30:21.231Z,38.10
2022-11-21T15:33:10.343Z,28.90
2022-11-21T15:35:58.199Z,37.10
2022-11-21T15:38:34.665Z,39.50
2022-11-21T15:41:27.401Z,38.50
2022-11-21T15:44:20.161Z,36.60
2022-11-21T15:46:53.984Z,36.50
2022-11-21T15:49:32.915Z,37.80
2022-11-21T15:52:16.378Z,33.70
2022-11-21T15:54:48.419Z,32.20
2022-11-21T15:59:53.200Z,38.10
2022-11-21T16:02:24.247Z,38.30
2022-11-21T16:04:55.367Z,32.70
2022-11-21T16:07:26.341Z,39.70
2022-11-21T16:09:57.797Z,40.00
2022-11-21T16:12:28.860Z,38.60
2022-11-21T16:14:59.898Z,38.20
2022-11-21T16:17:31.376Z,38.20
2022-11-21T16:20:02.595Z,38.50
2022-11-21T16:22:34.027Z,36.90
2022-11-21T16:25:05.485Z,38.60
2022-11-21T16:27:36.491Z,37.60
2022-11-21T16:30:09.614Z,40.30
2022-11-21T16:32:40.714Z,38.70
2022-11-21T16:35:12.463Z,38.90
2022-11-21T16:37:43.442Z,36.40
2022-11-21T16:40:15.073Z,40.00
2022-11-21T16:42:47.013Z,38.30
2022-11-21T16:45:18.574Z,39.40
2022-11-21T16:47:49.837Z,40.10
2022-11-21T16:50:22.218Z,27.90
2022-11-21T16:52:53.251Z,33.60
2022-11-21T16:55:24.804Z,33.60
2022-11-21T16:57:58.017Z,37.10
2022-11-21T17:00:30.573Z,36.60
2022-11-21T17:03:02.003Z,37.00
2022-11-21T17:05:33.287Z,36.10
2022-11-21T17:08:04.386Z,36.80
2022-11-21T17:10:35.582Z,29.30
2022-11-21T17:13:06.783Z,39.70
2022-11-21T17:15:37.937Z,37.60
2022-11-21T17:18:09.092Z,38.50
2022-11-21T17:20:40.202Z,40.90
2022-11-21T17:23:11.486Z,32.30
2022-11-21T17:25:42.457Z,36.70
2022-11-21T17:28:13.624Z,33.40
2022-11-21T17:30:44.740Z,35.70
2022-11-21T17:33:15.900Z,32.90
2022-11-21T17:35:47.013Z,38.00
2022-11-21T17:38:18.597Z,37.10
2022-11-21T17:40:59.726Z,34.30
2022-11-21T17:43:31.382Z,38.00
2022-11-21T17:46:09.294Z,37.00
2022-11-21T17:48:42.357Z,36.00
2022-11-21T17:51:19.414Z,36.90
2022-11-21T17:53:52.772Z,34.30
2022-11-21T17:56:26.623Z,35.80
2022-11-21T17:58:59.284Z,34.60
2022-11-21T18:01:33.671Z,32.90
2022-11-21T18:04:11.844Z,34.90
2022-11-21T18:06:45.073Z,36.20
2022-11-21T18:09:39.642Z,34.50
2022-11-21T18:12:15.299Z,32.90
2022-11-21T18:14:47.549Z,37.50
2022-11-21T18:17:18.833Z,34.90
2022-11-21T18:19:52.097Z,35.20
2022-11-21T18:22:29.223Z,36.60
2022-11-21T18:25:00.953Z,36.90
2022-11-21T18:27:33.757Z,36.10
2022-11-21T18:30:23.278Z,29.20
2022-11-21T18:33:22.106Z,32.80
2022-11-21T18:36:42.759Z,39.80
2022-11-21T18:43:40.602Z,31.90
2022-11-21T18:47:20.601Z,36.40
2022-11-21T18:49:08.857Z,36.20
2022-11-21T18:51:40.191Z,37.00
2022-11-21T18:54:15.314Z,35.50
2022-11-21T18:56:47.352Z,33.60
2022-11-21T18:59:19.829Z,34.50
2022-11-21T19:01:53.334Z,30.80
2022-11-21T19:04:28.710Z,32.10
2022-11-21T19:09:32.827Z,30.80
2022-11-21T19:12:04.510Z,31.70
2022-11-21T19:14:35.941Z,33.20
2022-11-21T19:17:09.884Z,33.20
2022-11-21T19:19:41.475Z,33.00
2022-11-21T19:22:13.734Z,31.50
2022-11-21T19:24:45.230Z,29.90
2022-11-21T19:27:16.438Z,32.90
2022-11-21T19:29:52.249Z,34.30
2022-11-21T19:32:24.093Z,33.80
2022-11-21T19:34:58.850Z,24.30
2022-11-21T19:37:32.400Z,33.10
2022-11-21T19:40:03.681Z,32.90
2022-11-21T19:42:35.100Z,30.50
2022-11-21T19:45:07.149Z,32.30
2022-11-21T19:47:38.618Z,29.20
2022-11-21T19:50:12.666Z,33.10
2022-11-21T19:52:43.866Z,33.20
2022-11-21T19:55:14.844Z,32.00
2022-11-21T19:57:46.101Z,32.90
2022-11-21T20:00:22.316Z,34.10
2022-11-21T20:02:53.612Z,32.20
2022-11-21T20:05:24.770Z,32.50
2022-11-21T20:08:01.663Z,31.40
2022-11-21T20:10:36.462Z,31.40
2022-11-21T20:13:07.757Z,33.20
2022-11-21T20:15:41.693Z,33.60
2022-11-21T20:18:21.215Z,34.10
2022-11-21T20:20:52.502Z,32.40
2022-11-21T20:23:23.681Z,31.40
2022-11-21T20:25:55.101Z,32.00
2022-11-21T20:28:26.226Z,32.10
2022-11-21T20:31:03.801Z,33.70
2022-11-21T20:33:38.935Z,32.40
2022-11-21T20:36:12.336Z,32.50
2022-11-21T20:38:43.680Z,30.80
2022-11-21T20:41:14.811Z,32.60
2022-11-21T20:44:27.376Z,33.90
2022-11-21T20:46:37.253Z,33.50
2022-11-21T20:49:08.428Z,34.30
2022-11-21T20:54:31.016Z,35.00
2022-11-21T20:57:02.383Z,36.40
2022-11-21T20:59:33.564Z,35.20
2022-11-21T21:02:04.937Z,35.90
2022-11-21T21:04:36.345Z,35.40
2022-11-21T21:07:10.383Z,33.50
2022-11-21T21:09:41.815Z,34.60
2022-11-21T21:12:13.389Z,36.90
2022-11-21T21:14:45.711Z,32.80
2022-11-21T21:17:16.999Z,35.10
2022-11-21T21:19:48.267Z,30.10
2022-11-21T21:22:19.537Z,33.90
2022-11-21T21:24:50.907Z,36.40
2022-11-21T21:27:22.176Z,35.20
2022-11-21T21:29:53.575Z,37.10
2022-11-21T21:32:24.984Z,22.20
2022-11-21T21:34:56.380Z,34.20
2022-11-21T21:37:28.017Z,33.80
2022-11-21T21:39:59.066Z,33.70
2022-11-21T21:42:30.332Z,33.00
2022-11-21T21:45:02.638Z,35.10
2022-11-21T21:47:33.701Z,34.30
2022-11-21T21:50:15.528Z,33.10
2022-11-21T21:52:47.111Z,34.80
2022-11-21T21:55:20.579Z,33.80
2022-11-21T21:57:54.192Z,32.90
2022-11-21T22:00:30.554Z,33.20
2022-11-21T22:03:08.688Z,33.70
2022-11-21T22:05:39.906Z,34.30
2022-11-21T22:08:14.241Z,33.20
2022-11-21T22:10:45.347Z,32.00
2022-11-21T22:13:17.434Z,34.50
2022-11-21T22:15:48.942Z,34.90
2022-11-21T22:18:22.634Z,32.50
2022-11-21T22:20:53.911Z,33.30
2022-11-21T22:23:25.635Z,32.70
2022-11-21T22:26:00.030Z,33.20
2022-11-21T22:28:31.443Z,34.10
2022-11-21T22:31:02.659Z,33.00
2022-11-21T22:33:34.503Z,33.60
2022-11-21T22:36:08.302Z,34.30
2022-11-21T22:38:39.592Z,33.20
2022-11-21T22:41:16.594Z,34.10
2022-11-21T22:43:52.978Z,33.80
2022-11-21T22:46:25.228Z,32.00
2022-11-21T22:48:56.518Z,34.10
2022-11-21T22:51:29.536Z,35.20
2022-11-21T22:54:01.071Z,33.60
2022-11-21T22:56:32.446Z,32.10
2022-11-21T22:59:03.747Z,33.20
2022-11-21T23:01:35.262Z,31.30
2022-11-21T23:04:06.475Z,34.30
2022-11-21T23:06:37.429Z,32.10
2022-11-21T23:09:08.409Z,31.40
2022-11-21T23:11:41.154Z,32.40
2022-11-21T23:14:12.259Z,31.90
2022-11-21T23:16:43.237Z,30.70
2022-11-21T23:19:14.122Z,30.00
2022-11-21T23:21:45.120Z,30.80
2022-11-21T23:24:16.096Z,29.50
2022-11-21T23:26:46.987Z,32.50
2022-11-21T23:29:19.011Z,32.10
2022-11-21T23:31:49.899Z,30.40
2022-11-21T23:34:22.734Z,29.40
2022-11-21T23:36:53.689Z,29.00
2022-11-21T23:39:24.656Z,31.90
2022-11-21T23:41:55.766Z,32.00
2022-11-21T23:44:26.691Z,31.30
2022-11-21T23:46:57.819Z,30.00
2022-11-21T23:49:28.901Z,29.70
2022-11-21T23:51:59.985Z,29.40
2022-11-21T23:54:30.917Z,30.50
2022-11-21T23:57:01.895Z,31.30
2022-11-21T23:59:32.829Z,32.00
